Pagina principale
METAR-TAF:

METAR-TAF

Aeroporti :

Aeroporto di Jakutsk

Jakutsk, Russia

latitudine: 62-01N, longitudine: 129-43E, altezza: 103 m

Osservazione

Il bollettino è stato emesso 15 minuti fa, alle 17:00 UTC
Vento 6 kt da ovest/nord-ovest
Temperature -17°C
Umidità 65%
Pressione 1022 hPa
Visibilità 10 km o più
nessuna nube inferiore a 1500 m e nessun cumulonembo

METAR: UEEE 141700Z 30003MPS CAVOK M17/M22 Q1022 R23/09//60 NOSIG RMK QFE758

Ora: 02:15 (17:15 UTC)

Previsione

Il bollettino è stato emesso 3 ore e 15 minuti fa, alle 14:00 UTC
Previsione valida dal 14 alle 15 UTC al 15 alle 21 UTC
Vento 6 kt da nord-ovest
Visibilità 10 km o più
nessuna nube inferiore a 1500 m e nessun cumulonembo
Temporaneamente
dal 14 alle 17 UTC al 14 alle 24 UTC
Visibilità: 0300 m
ad un'altezza di 300 ft
nebbia che ghiaccia,

TAF: UEEE 141400Z 1415/1521 31003MPS CAVOK TEMPO 1417/1424 0300 FZFG VV003

Osservazioni e previsioni meteorologiche di più di 4000 aeroporti (messaggi METAR e TAF).

Le stazioni disponibili sono rappresentate dai dischi gialli e rossi sulla carta.

Puntare il mouse per vedere il nome della stazione.

Clicca sopra per visualizzare le osservazioni e previsioni meteorologiche.

Per cambiare la mappa : fare clic sui pulsanti verdi con una croce nera per ingrandire, il pulsante verde con un trattino per diminuire, o sulla freccia verde per le mappe adiacenti.


METAR-TAF: